Time;durP1;ratioP1;P1;durP2;ratioP2;P2;SDS_P1;SDS_P2;PMS_P1;PMS_P2;Temp;Humidity;BMP_temperature;BMP_pressure;BME280_temperature;BME280_humidity;BME280_pressure;Samples;Min_cycle;Max_cycle;Signal;HPM_P1;HPM_P2
2022/04/19 00:00:29;;;;;;;4.13;3.10;;;8.10;65.40;;;;;;4996964;28;20489;-64
2022/04/19 00:02:55;;;;;;;4.73;3.23;;;8.10;65.50;;;;;;4996780;28;20501;-64
2022/04/19 00:05:21;;;;;;;3.83;2.87;;;8.20;64.90;;;;;;4980514;28;20192;-63
2022/04/19 00:07:47;;;;;;;3.70;3.20;;;8.10;64.90;;;;;;4981052;28;20212;-63
2022/04/19 00:10:12;;;;;;;3.53;2.50;;;8.10;65.00;;;;;;4980275;28;20525;-62
2022/04/19 00:12:38;;;;;;;4.03;2.70;;;8.00;65.20;;;;;;4980473;28;20180;-63
2022/04/19 00:15:05;;;;;;;2.97;2.67;;;8.00;65.50;;;;;;4980836;28;20184;-63
2022/04/19 00:17:30;;;;;;;3.73;2.70;;;8.00;65.80;;;;;;4980247;28;20185;-64
2022/04/19 00:19:56;;;;;;;4.37;3.13;;;8.00;66.20;;;;;;4980362;28;20481;-64
2022/04/19 00:22:22;;;;;;;3.07;2.70;;;8.00;67.10;;;;;;4980314;28;20188;-65
2022/04/19 00:24:47;;;;;;;6.17;3.50;;;8.00;68.10;;;;;;4963703;28;20236;-64
2022/04/19 00:27:13;;;;;;;4.00;3.47;;;7.90;69.90;;;;;;4996464;28;20299;-64
2022/04/19 00:29:41;;;;;;;4.53;3.63;;;7.90;72.50;;;;;;4980255;28;20279;-64
2022/04/19 00:32:08;;;;;;;6.00;3.37;;;7.80;74.30;;;;;;4996451;28;20180;-64
2022/04/19 00:34:34;;;;;;;5.30;2.97;;;7.60;76.30;;;;;;4980071;28;20434;-64
2022/04/19 00:37:01;;;;;;;4.83;3.40;;;7.50;78.00;;;;;;4980247;28;20461;-63
2022/04/19 00:39:27;;;;;;;4.87;4.03;;;7.30;79.50;;;;;;4996159;28;20177;-63
2022/04/19 00:41:52;;;;;;;4.07;3.67;;;7.30;78.00;;;;;;4979790;28;20529;-63
2022/04/19 00:44:18;;;;;;;4.47;3.30;;;7.20;78.90;;;;;;4980051;28;20525;-63
2022/04/19 00:46:44;;;;;;;5.00;4.03;;;7.10;80.40;;;;;;4979798;28;20255;-62
2022/04/19 00:49:09;;;;;;;4.03;3.63;;;7.10;81.10;;;;;;4969815;28;20223;-62
2022/04/19 00:51:35;;;;;;;4.33;3.77;;;7.10;81.40;;;;;;4959772;28;20213;-63
2022/04/19 00:54:03;;;;;;;4.30;3.90;;;7.00;80.50;;;;;;4973749;28;20191;-63
2022/04/19 00:56:29;;;;;;;4.33;3.60;;;7.10;81.10;;;;;;4980270;28;20184;-64
2022/04/19 00:58:55;;;;;;;4.53;4.13;;;7.00;81.10;;;;;;4978576;28;20491;-64
2022/04/19 01:01:21;;;;;;;4.53;4.07;;;7.00;82.50;;;;;;4979701;28;20525;-64
2022/04/19 01:03:46;;;;;;;4.50;4.10;;;7.00;82.90;;;;;;4979683;28;20513;-64
2022/04/19 01:06:12;;;;;;;4.07;3.77;;;6.90;82.40;;;;;;4963807;28;20228;-64
2022/04/19 01:08:38;;;;;;;5.60;3.80;;;6.90;83.00;;;;;;4962807;28;20219;-64
2022/04/19 01:13:49;;;;;;;4.43;4.03;;;6.80;83.80;;;;;;4996271;28;20437;-63
2022/04/19 01:16:16;;;;;;;5.93;4.30;;;6.80;84.60;;;;;;4979274;28;20468;-63
2022/04/19 01:18:42;;;;;;;5.17;4.00;;;6.80;81.90;;;;;;4959318;28;20452;-64
2022/04/19 01:21:08;;;;;;;5.67;4.43;;;6.80;82.40;;;;;;4978088;28;20434;-62
2022/04/19 01:23:34;;;;;;;5.67;4.20;;;6.80;79.90;;;;;;4978238;28;20188;-63
2022/04/19 01:26:00;;;;;;;5.07;4.57;;;6.80;78.70;;;;;;4979088;28;20487;-63
2022/04/19 01:28:26;;;;;;;6.60;4.20;;;6.80;77.90;;;;;;4979115;28;20208;-63
2022/04/19 01:30:54;;;;;;;4.70;4.03;;;6.70;78.20;;;;;;4995635;28;20557;-63
2022/04/19 01:33:21;;;;;;;4.77;4.27;;;6.80;80.00;;;;;;4978916;28;20192;-63
2022/04/19 01:35:48;;;;;;;4.80;4.30;;;6.80;80.70;;;;;;4989517;28;20435;-63
2022/04/19 01:38:13;;;;;;;4.80;3.87;;;6.80;79.50;;;;;;4964496;28;20446;-62
2022/04/19 01:40:39;;;;;;;4.20;3.80;;;6.80;79.00;;;;;;4990854;28;20449;-63
2022/04/19 01:43:05;;;;;;;3.70;3.40;;;6.80;80.20;;;;;;4978637;28;20185;-63
2022/04/19 01:45:32;;;;;;;4.20;3.80;;;6.70;79.80;;;;;;4974811;28;20193;-63
2022/04/19 01:48:00;;;;;;;3.90;3.60;;;6.70;80.30;;;;;;4992154;28;20204;-63
2022/04/19 01:50:27;;;;;;;4.63;4.10;;;6.70;80.40;;;;;;4958992;28;20442;-63
2022/04/19 01:52:54;;;;;;;5.27;4.77;;;6.70;81.00;;;;;;4975048;28;20419;-63
2022/04/19 01:55:21;;;;;;;4.50;4.10;;;6.70;79.30;;;;;;4975861;28;20435;-63
2022/04/19 01:57:56;;;;;;;4.80;4.40;;;6.70;79.70;;;;;;4978721;28;20522;-62
2022/04/19 02:00:22;;;;;;;5.23;3.97;;;6.70;79.50;;;;;;4983368;28;20438;-64
2022/04/19 02:02:48;;;;;;;4.67;4.03;;;6.70;79.50;;;;;;4984138;28;20418;-63
2022/04/19 02:05:15;;;;;;;4.37;3.87;;;6.70;78.40;;;;;;4978641;28;20442;-64
2022/04/19 02:07:44;;;;;;;4.77;4.20;;;6.80;80.10;;;;;;4978464;28;20469;-64
2022/04/19 02:10:11;;;;;;;4.20;3.80;;;6.70;81.20;;;;;;4993569;28;20438;-63
2022/04/19 02:12:38;;;;;;;5.10;4.40;;;6.80;82.00;;;;;;4978625;28;20457;-64
2022/04/19 02:15:05;;;;;;;5.63;4.70;;;6.80;83.50;;;;;;4994427;28;20434;-64
2022/04/19 02:17:31;;;;;;;5.10;4.60;;;6.70;83.80;;;;;;4994367;28;20429;-64
2022/04/19 02:20:06;;;;;;;5.17;4.57;;;6.80;84.50;;;;;;4977985;28;20429;-64
2022/04/19 02:22:33;;;;;;;5.40;4.90;;;6.80;85.10;;;;;;4994279;28;20230;-64
2022/04/19 02:24:59;;;;;;;5.27;4.80;;;6.70;85.40;;;;;;4978177;28;20474;-64
2022/04/19 02:27:31;;;;;;;5.80;4.67;;;6.70;85.60;;;;;;4977284;28;20469;-64
2022/04/19 02:29:57;;;;;;;4.77;4.37;;;6.70;85.90;;;;;;4983371;28;20486;-64
2022/04/19 02:32:27;;;;;;;5.77;4.67;;;6.70;86.10;;;;;;4975143;28;20419;-64
2022/04/19 02:34:53;;;;;;;5.53;4.80;;;6.60;85.30;;;;;;4959207;28;20419;-64
2022/04/19 02:37:19;;;;;;;4.50;4.10;;;6.60;86.80;;;;;;4958838;28;20415;-64
2022/04/19 02:39:49;;;;;;;6.20;5.07;;;6.60;86.60;;;;;;4986727;28;20814;-65
2022/04/19 02:42:15;;;;;;;6.83;4.73;;;6.60;86.50;;;;;;4994304;28;20497;-63
2022/04/19 02:44:41;;;;;;;6.80;4.77;;;6.60;87.10;;;;;;4977674;28;20492;-64
2022/04/19 02:47:07;;;;;;;7.13;5.00;;;6.50;86.40;;;;;;4977794;28;20450;-63
2022/04/19 02:49:33;;;;;;;5.07;4.40;;;6.40;86.30;;;;;;4978092;28;20177;-63
2022/04/19 02:51:59;;;;;;;6.47;5.30;;;6.40;87.60;;;;;;4978321;28;20258;-63
2022/04/19 02:54:25;;;;;;;6.10;5.50;;;6.40;87.20;;;;;;4977285;28;20446;-64
2022/04/19 02:56:51;;;;;;;5.63;4.80;;;6.30;87.80;;;;;;4978190;28;20195;-65
2022/04/19 02:59:17;;;;;;;6.53;5.83;;;6.30;87.80;;;;;;4977405;28;20185;-65
2022/04/19 03:01:43;;;;;;;7.43;6.60;;;6.20;88.20;;;;;;4977814;28;20422;-65
2022/04/19 03:04:09;;;;;;;6.67;6.00;;;6.20;89.00;;;;;;4977403;28;20487;-63
2022/04/19 03:06:35;;;;;;;6.47;5.80;;;6.10;90.10;;;;;;4977527;28;20188;-65
2022/04/19 03:09:01;;;;;;;6.83;5.90;;;6.10;90.40;;;;;;4976343;28;20362;-67
2022/04/19 03:11:27;;;;;;;6.80;6.20;;;6.10;90.70;;;;;;4977539;28;20508;-66
2022/04/19 03:13:54;;;;;;;6.70;6.10;;;6.20;89.90;;;;;;4977763;28;20192;-65
2022/04/19 03:16:20;;;;;;;7.67;6.10;;;6.20;89.70;;;;;;4977671;28;20516;-65
2022/04/19 03:18:46;;;;;;;6.80;5.97;;;6.10;90.20;;;;;;4977215;28;20481;-66
2022/04/19 03:21:12;;;;;;;7.17;6.47;;;6.10;90.90;;;;;;4977426;28;20243;-66
2022/04/19 03:29:10;;;;;;;8.50;6.87;;;6.00;91.20;;;;;;4989660;28;20477;-66
2022/04/19 03:31:36;;;;;;;7.10;6.40;;;6.00;91.60;;;;;;4977072;28;20438;-67
2022/04/19 03:34:04;;;;;;;8.00;7.20;;;6.00;91.10;;;;;;4977042;28;20422;-66
2022/04/19 03:36:30;;;;;;;7.77;7.00;;;6.00;91.60;;;;;;4977257;28;20422;-67
2022/04/19 03:38:55;;;;;;;8.53;7.63;;;6.00;91.80;;;;;;4977578;28;20438;-67
2022/04/19 03:41:21;;;;;;;7.90;7.10;;;6.00;91.40;;;;;;4958607;28;20189;-66
2022/04/19 03:43:48;;;;;;;8.60;6.73;;;6.00;91.90;;;;;;4982459;28;20185;-67
2022/04/19 03:46:13;;;;;;;7.60;6.90;;;6.00;92.10;;;;;;4993715;28;20173;-67
2022/04/19 03:48:39;;;;;;;8.70;7.80;;;6.00;91.90;;;;;;4970013;28;20462;-66
2022/04/19 03:51:05;;;;;;;9.17;8.13;;;6.10;92.20;;;;;;4960524;28;20193;-68
2022/04/19 03:53:31;;;;;;;11.90;8.23;;;6.10;92.30;;;;;;4977392;28;20184;-67
2022/04/19 03:55:58;;;;;;;10.17;7.77;;;6.10;91.90;;;;;;4976860;28;20184;-68
2022/04/19 03:58:26;;;;;;;7.77;7.07;;;6.10;92.30;;;;;;4977239;28;20426;-68
2022/04/19 04:00:55;;;;;;;8.57;7.80;;;6.00;92.10;;;;;;4977390;28;20446;-68
2022/04/19 04:03:21;;;;;;;8.93;8.10;;;6.00;92.30;;;;;;4988587;28;20419;-67
2022/04/19 04:05:47;;;;;;;9.00;8.10;;;6.00;92.50;;;;;;4970157;28;20518;-67
2022/04/19 04:08:13;;;;;;;9.37;8.00;;;6.00;92.50;;;;;;4973746;28;20229;-68
2022/04/19 04:10:39;;;;;;;7.80;7.03;;;5.90;92.40;;;;;;4987883;28;20185;-72
2022/04/19 04:13:04;;;;;;;8.97;8.13;;;5.90;92.90;;;;;;4977113;28;20206;-71
2022/04/19 04:15:31;;;;;;;10.60;9.10;;;5.90;93.30;;;;;;4969364;28;20189;-70
2022/04/19 04:17:56;;;;;;;8.00;7.20;;;6.00;93.60;;;;;;4978881;28;20207;-72
2022/04/19 04:20:22;;;;;;;8.67;7.87;;;6.00;93.40;;;;;;4961019;28;20434;-71
2022/04/19 04:22:48;;;;;;;10.27;9.17;;;6.00;93.60;;;;;;4945846;28;20205;-67
2022/04/19 04:25:13;;;;;;;8.97;8.07;;;6.00;93.20;;;;;;4963803;28;20244;-67
2022/04/19 04:27:39;;;;;;;11.03;9.00;;;6.10;93.40;;;;;;4978151;28;20215;-66
2022/04/19 04:30:06;;;;;;;10.00;8.50;;;6.10;93.30;;;;;;4976788;28;20189;-67
2022/04/19 04:32:32;;;;;;;10.87;9.77;;;6.00;93.10;;;;;;4962836;28;20189;-67
2022/04/19 04:34:58;;;;;;;11.57;9.67;;;6.10;93.00;;;;;;4964507;28;20446;-67
2022/04/19 04:37:24;;;;;;;11.33;9.73;;;6.00;91.70;;;;;;5013221;28;20472;-67
2022/04/19 04:39:49;;;;;;;9.40;8.40;;;6.00;92.20;;;;;;4991047;28;20256;-67
2022/04/19 04:42:15;;;;;;;10.20;9.10;;;5.90;92.00;;;;;;5006915;28;20728;-67
2022/04/19 04:44:41;;;;;;;11.67;10.47;;;5.90;92.00;;;;;;4963697;28;20204;-68
2022/04/19 04:49:52;;;;;;;10.70;9.10;;;5.90;92.20;;;;;;4984789;28;20200;-66
2022/04/19 04:52:20;;;;;;;11.20;9.57;;;5.80;92.40;;;;;;4976135;28;20440;-65
2022/04/19 04:54:46;;;;;;;12.23;11.03;;;5.80;92.50;;;;;;4959397;28;20436;-66
2022/04/19 04:57:12;;;;;;;11.67;10.50;;;5.80;92.70;;;;;;4990864;28;20437;-65
2022/04/19 04:59:38;;;;;;;12.80;11.10;;;5.80;93.00;;;;;;4997491;28;20191;-66
2022/04/19 05:02:04;;;;;;;10.57;9.47;;;5.80;93.20;;;;;;4991994;28;20192;-67
2022/04/19 05:04:32;;;;;;;11.23;10.13;;;5.80;93.10;;;;;;5013642;28;20417;-66
2022/04/19 05:06:58;;;;;;;11.73;10.53;;;5.80;93.20;;;;;;5013056;28;20508;-66
2022/04/19 05:09:24;;;;;;;11.57;9.63;;;5.70;93.40;;;;;;4997003;28;20417;-65
2022/04/19 05:11:52;;;;;;;9.97;8.83;;;5.60;92.20;;;;;;4982422;28;20192;-65
2022/04/19 05:14:19;;;;;;;9.50;8.57;;;5.70;92.50;;;;;;4987068;28;20227;-66
2022/04/19 05:16:45;;;;;;;10.70;9.57;;;5.60;92.20;;;;;;4994426;28;20410;-66
2022/04/19 05:19:11;;;;;;;10.77;9.77;;;5.60;92.70;;;;;;4962268;28;20433;-65
2022/04/19 05:21:40;;;;;;;10.80;9.73;;;5.60;93.20;;;;;;4978100;28;20203;-66
2022/04/19 05:24:06;;;;;;;11.30;10.20;;;5.70;93.40;;;;;;4976945;28;20495;-66
2022/04/19 05:26:32;;;;;;;10.80;9.80;;;5.60;93.00;;;;;;4993767;28;20422;-65
2022/04/19 05:28:58;;;;;;;11.70;10.50;;;5.60;93.00;;;;;;4968064;28;20465;-64
2022/04/19 05:31:24;;;;;;;12.53;11.23;;;5.60;93.20;;;;;;4982277;28;20284;-64
2022/04/19 05:33:50;;;;;;;12.13;10.83;;;5.50;92.80;;;;;;4995820;28;20199;-65
2022/04/19 05:36:16;;;;;;;9.60;8.70;;;5.50;92.50;;;;;;5013381;28;20211;-65
2022/04/19 05:38:42;;;;;;;9.60;8.70;;;5.40;91.80;;;;;;5013659;28;20452;-65
2022/04/19 05:41:08;;;;;;;8.20;7.40;;;5.30;92.00;;;;;;4981039;28;20425;-65
2022/04/19 05:43:33;;;;;;;8.97;8.07;;;5.30;91.60;;;;;;4997085;28;20184;-65
2022/04/19 05:45:59;;;;;;;8.67;7.87;;;5.20;91.20;;;;;;4996873;28;20195;-65
2022/04/19 05:48:25;;;;;;;10.27;9.10;;;5.10;91.60;;;;;;4980853;28;20215;-65
2022/04/19 05:50:52;;;;;;;9.53;8.60;;;5.10;92.20;;;;;;5013404;28;20182;-65
2022/04/19 05:53:18;;;;;;;9.03;8.23;;;5.10;92.10;;;;;;4979810;28;20429;-66
2022/04/19 05:55:44;;;;;;;9.70;8.80;;;5.10;92.60;;;;;;4980881;28;20471;-66
2022/04/19 05:58:09;;;;;;;9.10;8.20;;;5.10;93.20;;;;;;4980545;28;20444;-66
2022/04/19 06:00:35;;;;;;;9.47;8.57;;;5.20;93.50;;;;;;4996827;28;20274;-65
2022/04/19 06:05:45;;;;;;;9.30;8.40;;;5.30;93.40;;;;;;5013949;28;20241;-65
2022/04/19 06:08:11;;;;;;;9.67;8.67;;;5.30;93.80;;;;;;4996807;28;20464;-65
2022/04/19 06:10:36;;;;;;;9.30;8.40;;;5.30;92.80;;;;;;4971285;28;20204;-65
2022/04/19 06:13:02;;;;;;;7.60;6.90;;;5.30;92.90;;;;;;4977200;28;20227;-65
2022/04/19 06:15:28;;;;;;;8.73;7.93;;;5.20;92.80;;;;;;4977188;28;20207;-66
2022/04/19 06:17:53;;;;;;;10.93;8.50;;;5.20;92.80;;;;;;4976810;28;20216;-65
2022/04/19 06:20:19;;;;;;;9.30;8.23;;;5.20;92.70;;;;;;4960524;28;20196;-65
2022/04/19 06:22:45;;;;;;;9.37;8.47;;;5.20;93.20;;;;;;4957228;28;20200;-65
2022/04/19 06:25:12;;;;;;;10.53;8.37;;;5.20;93.40;;;;;;4957079;28;20237;-65
2022/04/19 06:27:38;;;;;;;11.07;9.97;;;5.10;93.40;;;;;;4959270;28;20213;-65
2022/04/19 06:30:04;;;;;;;9.77;8.73;;;5.10;93.50;;;;;;4976993;28;20436;-65
2022/04/19 06:32:30;;;;;;;11.47;9.67;;;5.10;93.40;;;;;;4976275;28;20192;-65
2022/04/19 06:34:55;;;;;;;9.27;8.37;;;5.20;93.80;;;;;;4976914;28;20421;-65
2022/04/19 06:37:22;;;;;;;10.83;9.73;;;5.20;93.60;;;;;;4975153;28;20185;-65
2022/04/19 06:39:48;;;;;;;11.40;9.30;;;5.20;94.00;;;;;;4991723;28;20194;-65
2022/04/19 06:42:14;;;;;;;10.10;9.10;;;5.30;94.30;;;;;;4985623;28;20444;-64
2022/04/19 06:44:40;;;;;;;11.80;10.60;;;5.30;94.40;;;;;;4970221;28;20438;-64
2022/04/19 06:47:07;;;;;;;11.30;10.20;;;5.30;94.10;;;;;;4975046;28;20206;-64
2022/04/19 06:49:33;;;;;;;10.00;9.10;;;5.30;94.40;;;;;;4975869;28;20230;-65
2022/04/19 06:51:59;;;;;;;11.17;10.13;;;5.30;94.20;;;;;;4976436;28;20512;-65
2022/04/19 06:54:25;;;;;;;11.13;10.03;;;5.30;94.30;;;;;;4993507;28;20257;-65
2022/04/19 06:56:50;;;;;;;10.80;9.70;;;5.40;94.30;;;;;;4979235;28;20488;-64
2022/04/19 06:59:16;;;;;;;9.57;8.67;;;5.40;94.50;;;;;;4976426;28;20188;-64
2022/04/19 07:01:43;;;;;;;10.87;9.87;;;5.40;94.30;;;;;;4976710;28;20283;-64
2022/04/19 07:04:10;;;;;;;10.67;9.57;;;5.50;94.40;;;;;;4976130;28;20198;-65
2022/04/19 07:06:36;;;;;;;9.03;7.60;;;5.60;94.20;;;;;;4991268;28;20428;-64
2022/04/19 07:09:03;;;;;;;9.97;8.90;;;5.50;93.60;;;;;;4975515;28;20469;-64
2022/04/19 07:11:28;;;;;;;9.73;8.83;;;5.40;93.80;;;;;;4990761;28;20425;-65
2022/04/19 07:13:55;;;;;;;9.87;8.87;;;5.40;93.60;;;;;;4991509;28;20417;-65
2022/04/19 07:16:20;;;;;;;8.60;7.77;;;5.50;93.70;;;;;;4975563;28;20184;-65
2022/04/19 07:18:46;;;;;;;11.07;9.57;;;5.40;94.10;;;;;;4975716;28;20448;-65
2022/04/19 07:26:41;;;;;;;8.27;7.43;;;5.70;94.20;;;;;;4994425;28;20524;-64
2022/04/19 07:29:18;;;;;;;8.70;7.87;;;5.60;93.50;;;;;;4972320;28;20563;-64
2022/04/19 07:31:48;;;;;;;9.10;8.20;;;5.60;93.60;;;;;;4992385;28;20210;-65
2022/04/19 07:34:15;;;;;;;8.87;8.00;;;5.50;93.00;;;;;;4992144;28;20556;-65
2022/04/19 07:36:41;;;;;;;7.03;6.43;;;5.40;93.00;;;;;;4972087;28;21001;-65
2022/04/19 07:39:12;;;;;;;8.70;7.80;;;5.30;93.40;;;;;;4956564;28;20431;-65
2022/04/19 07:41:38;;;;;;;7.80;7.10;;;5.40;93.50;;;;;;4995964;28;20188;-64
2022/04/19 07:44:05;;;;;;;8.73;7.93;;;5.30;93.50;;;;;;4990080;28;20434;-65
2022/04/19 07:46:31;;;;;;;7.13;6.53;;;5.40;94.00;;;;;;4975875;28;20452;-64
2022/04/19 07:48:58;;;;;;;8.87;7.97;;;5.40;93.90;;;;;;4959177;28;20480;-64
2022/04/19 07:51:24;;;;;;;7.27;6.57;;;5.40;94.00;;;;;;4995483;28;20188;-64
2022/04/19 07:53:51;;;;;;;8.30;7.60;;;5.50;94.10;;;;;;4995126;28;20429;-64
2022/04/19 07:56:17;;;;;;;7.30;6.70;;;5.60;93.90;;;;;;4995430;28;20421;-64
2022/04/19 07:58:45;;;;;;;6.57;6.07;;;5.60;93.80;;;;;;4979169;28;20518;-64
2022/04/19 08:01:11;;;;;;;6.77;6.07;;;5.50;92.70;;;;;;4962616;28;20434;-64
2022/04/19 08:03:36;;;;;;;7.37;6.30;;;5.60;93.10;;;;;;4993894;28;20428;-64
2022/04/19 08:06:02;;;;;;;7.10;6.43;;;5.60;93.20;;;;;;4982175;28;20184;-64
2022/04/19 08:08:28;;;;;;;6.37;5.80;;;5.50;92.20;;;;;;4989012;28;20215;-64
2022/04/19 08:10:54;;;;;;;6.13;5.60;;;5.60;92.50;;;;;;4978132;28;20185;-64
2022/04/19 08:13:19;;;;;;;7.43;6.03;;;5.60;92.20;;;;;;4978528;28;20184;-64
2022/04/19 08:15:46;;;;;;;6.13;5.53;;;5.60;91.70;;;;;;4978600;28;20227;-64
2022/04/19 08:18:14;;;;;;;7.83;6.53;;;5.70;91.20;;;;;;4972520;28;20185;-64
2022/04/19 08:20:43;;;;;;;6.03;5.43;;;5.70;91.00;;;;;;4960041;28;20427;-64
2022/04/19 08:23:10;;;;;;;6.97;6.37;;;5.60;89.70;;;;;;4959037;28;20529;-64
2022/04/19 08:25:37;;;;;;;6.63;6.03;;;5.70;90.30;;;;;;5007662;28;20568;-64
2022/04/19 08:28:03;;;;;;;7.30;6.60;;;5.50;88.90;;;;;;4994121;28;20492;-65
2022/04/19 08:30:29;;;;;;;6.80;6.23;;;5.40;90.20;;;;;;4977712;28;20480;-64
2022/04/19 08:32:56;;;;;;;7.13;6.47;;;5.40;89.90;;;;;;4977521;28;20458;-64
2022/04/19 08:35:21;;;;;;;7.17;6.47;;;5.40;90.50;;;;;;4995097;28;20422;-64
2022/04/19 08:37:48;;;;;;;6.30;5.80;;;5.40;91.30;;;;;;4978564;28;20440;-64
2022/04/19 08:40:14;;;;;;;7.70;6.90;;;5.30;90.60;;;;;;4978806;28;20188;-64
2022/04/19 08:42:40;;;;;;;6.10;5.60;;;5.30;91.70;;;;;;4971118;28;20435;-64
2022/04/19 08:45:08;;;;;;;9.23;6.93;;;5.30;90.70;;;;;;4988907;28;20441;-64
2022/04/19 08:47:44;;;;;;;7.43;6.60;;;5.30;91.90;;;;;;4959241;28;20466;-63
2022/04/19 08:50:17;;;;;;;6.37;5.73;;;5.30;91.70;;;;;;4988882;28;20464;-64
2022/04/19 08:52:43;;;;;;;5.80;5.30;;;5.20;91.60;;;;;;4994800;28;20476;-64
2022/04/19 08:57:54;;;;;;;6.53;5.90;;;5.10;91.90;;;;;;4975965;28;20425;-64
2022/04/19 09:00:24;;;;;;;5.10;4.37;;;5.10;92.40;;;;;;4959317;28;20449;-64
2022/04/19 09:02:55;;;;;;;5.77;5.27;;;5.00;92.00;;;;;;4987600;28;20425;-64
2022/04/19 09:05:26;;;;;;;5.27;4.77;;;5.00;91.50;;;;;;4996319;28;20432;-64
2022/04/19 09:07:54;;;;;;;6.03;4.33;;;5.00;91.50;;;;;;4977525;28;20473;-64
2022/04/19 09:10:29;;;;;;;4.67;4.27;;;5.00;91.90;;;;;;4993818;28;20413;-64
2022/04/19 09:12:59;;;;;;;5.03;4.53;;;5.00;92.70;;;;;;4994412;28;20492;-64
2022/04/19 09:15:37;;;;;;;6.73;6.10;;;5.20;93.30;;;;;;4993416;28;20500;-64
2022/04/19 09:18:04;;;;;;;4.97;4.47;;;5.30;93.30;;;;;;4994175;28;20425;-64
2022/04/19 09:20:31;;;;;;;4.70;4.30;;;5.30;93.30;;;;;;4994311;28;20508;-64
2022/04/19 09:23:08;;;;;;;5.20;4.80;;;5.40;92.20;;;;;;4978211;28;20448;-64
2022/04/19 09:25:36;;;;;;;5.20;4.73;;;5.40;92.30;;;;;;4976683;28;20509;-64
2022/04/19 09:28:05;;;;;;;5.50;5.00;;;5.50;92.60;;;;;;4976835;28;20796;-64
2022/04/19 09:30:37;;;;;;;4.87;4.37;;;5.40;92.20;;;;;;4976950;28;20585;-64
2022/04/19 09:33:08;;;;;;;5.37;4.97;;;5.40;91.90;;;;;;4992340;28;20441;-63
2022/04/19 09:35:48;;;;;;;5.33;4.53;;;5.40;93.00;;;;;;4992740;28;20498;-64
2022/04/19 09:38:14;;;;;;;5.40;4.90;;;5.50;92.40;;;;;;4976708;28;20441;-64
2022/04/19 09:40:48;;;;;;;4.37;4.07;;;5.50;92.40;;;;;;4977338;28;20436;-66
2022/04/19 09:43:21;;;;;;;4.80;4.40;;;5.40;91.30;;;;;;4981919;28;20434;-66
2022/04/19 09:45:58;;;;;;;3.60;3.33;;;5.40;92.20;;;;;;4974413;28;20423;-66
2022/04/19 09:48:34;;;;;;;3.40;3.20;;;5.40;92.00;;;;;;4997013;28;20459;-64
2022/04/19 09:51:08;;;;;;;3.30;3.10;;;5.40;91.80;;;;;;4996953;28;20416;-65
2022/04/19 09:53:48;;;;;;;3.87;3.50;;;5.30;91.20;;;;;;5011235;28;20472;-65
2022/04/19 09:56:19;;;;;;;3.70;3.40;;;5.30;92.40;;;;;;5011734;28;20428;-64
2022/04/19 09:58:46;;;;;;;2.90;2.70;;;5.50;92.80;;;;;;5013359;28;20409;-64
2022/04/19 10:09:33;;;;;;;4.10;3.80;;;5.70;93.00;;;;;;4992773;28;20544;-63
2022/04/19 10:12:01;;;;;;;3.07;2.77;;;5.60;92.00;;;;;;4990988;28;20429;-64
2022/04/19 10:14:29;;;;;;;3.87;3.53;;;5.60;92.10;;;;;;4991587;28;20406;-64
2022/04/19 10:16:57;;;;;;;4.70;3.30;;;5.70;91.90;;;;;;4997536;28;20487;-64
2022/04/19 10:19:23;;;;;;;3.53;3.23;;;5.60;91.60;;;;;;5011383;28;20421;-64
2022/04/19 10:21:51;;;;;;;3.03;2.77;;;5.60;92.20;;;;;;5011143;28;20433;-63
2022/04/19 10:24:17;;;;;;;4.10;3.70;;;5.70;92.20;;;;;;4996576;28;20551;-64
2022/04/19 10:26:49;;;;;;;6.00;3.10;;;5.70;91.10;;;;;;4976532;28;20440;-63
2022/04/19 10:29:30;;;;;;;2.90;2.70;;;5.60;91.60;;;;;;4992960;28;20469;-64
2022/04/19 10:32:03;;;;;;;3.67;3.33;;;5.70;91.70;;;;;;4991892;28;20422;-64
2022/04/19 10:34:32;;;;;;;4.20;3.10;;;5.70;91.20;;;;;;4991357;28;20418;-64
2022/04/19 10:37:19;;;;;;;3.00;2.80;;;5.70;91.30;;;;;;4975254;28;20557;-64
2022/04/19 10:39:50;;;;;;;3.60;3.40;;;5.70;91.80;;;;;;4992290;28;20426;-64
2022/04/19 10:42:34;;;;;;;4.00;3.60;;;5.80;93.40;;;;;;4991278;28;20449;-64
2022/04/19 10:45:11;;;;;;;4.30;3.90;;;5.90;93.60;;;;;;4987193;28;20434;-64
2022/04/19 10:47:57;;;;;;;3.40;3.10;;;5.90;93.60;;;;;;5013311;28;20465;-63
2022/04/19 10:50:39;;;;;;;3.60;3.30;;;5.90;92.90;;;;;;4977247;28;20410;-64
2022/04/19 10:53:06;;;;;;;3.33;3.03;;;6.00;93.50;;;;;;4977519;28;20432;-64
2022/04/19 10:55:35;;;;;;;3.17;2.93;;;6.10;92.70;;;;;;5013604;28;20465;-63
2022/04/19 10:58:12;;;;;;;4.00;3.70;;;6.00;92.60;;;;;;5012885;28;20440;-63
2022/04/19 11:00:59;;;;;;;3.50;3.20;;;6.00;92.60;;;;;;5011722;28;20487;-66
2022/04/19 11:03:25;;;;;;;4.17;3.87;;;6.20;93.20;;;;;;4989806;28;20429;-63
2022/04/19 11:05:51;;;;;;;4.77;4.37;;;6.20;93.30;;;;;;5012140;28;20417;-64
2022/04/19 11:08:26;;;;;;;3.73;3.40;;;6.30;93.20;;;;;;5000199;28;20311;-66
2022/04/19 11:10:58;;;;;;;3.90;3.60;;;6.30;93.50;;;;;;4993737;28;20420;-66
2022/04/19 11:13:28;;;;;;;3.67;3.37;;;6.30;92.90;;;;;;4991123;28;20434;-66
2022/04/19 11:16:00;;;;;;;4.33;3.93;;;6.40;93.40;;;;;;4997447;28;20437;-66
2022/04/19 11:18:26;;;;;;;3.83;3.50;;;6.50;93.30;;;;;;4996710;28;20434;-66
2022/04/19 11:21:05;;;;;;;3.90;3.50;;;6.50;93.50;;;;;;5007320;28;20421;-66
2022/04/19 11:23:45;;;;;;;3.90;3.50;;;6.60;92.60;;;;;;5013661;28;20409;-66
2022/04/19 11:26:26;;;;;;;3.63;3.33;;;6.70;93.50;;;;;;5017295;28;20428;-65
2022/04/19 11:29:10;;;;;;;3.30;3.00;;;6.70;93.10;;;;;;4997292;28;20543;-65
2022/04/19 11:31:45;;;;;;;4.00;3.60;;;6.80;93.00;;;;;;4997996;28;20516;-64
2022/04/19 11:34:15;;;;;;;3.80;3.50;;;6.80;93.10;;;;;;5011868;28;20416;-64
2022/04/19 11:36:41;;;;;;;3.67;3.37;;;6.80;92.50;;;;;;4995460;28;20437;-65
2022/04/19 11:39:07;;;;;;;3.87;3.13;;;6.80;91.10;;;;;;4980598;28;20429;-64
2022/04/19 11:46:44;;;;;;;3.87;3.57;;;7.10;93.00;;;;;;5017421;28;20452;-65
2022/04/19 11:49:16;;;;;;;4.33;4.03;;;7.10;91.00;;;;;;5016779;28;20452;-65
2022/04/19 11:51:46;;;;;;;3.43;3.23;;;7.00;91.10;;;;;;5016748;28;20171;-65
2022/04/19 11:54:20;;;;;;;3.70;3.33;;;6.90;90.10;;;;;;4997240;28;20464;-71
2022/04/19 11:56:53;;;;;;;3.47;3.17;;;6.70;89.20;;;;;;4988195;28;20441;-64
2022/04/19 11:59:28;;;;;;;4.10;3.70;;;6.70;89.40;;;;;;5008448;28;20452;-66
2022/04/19 12:01:54;;;;;;;3.37;3.07;;;6.60;91.00;;;;;;5009043;28;20409;-65
2022/04/19 12:04:21;;;;;;;3.23;2.93;;;6.60;91.70;;;;;;4971536;28;20441;-65
2022/04/19 12:06:58;;;;;;;4.43;3.83;;;6.70;92.50;;;;;;5014970;28;20413;-65
2022/04/19 12:09:24;;;;;;;4.30;3.90;;;6.80;92.10;;;;;;4998487;28;20453;-65
2022/04/19 12:11:51;;;;;;;4.03;3.73;;;6.80;91.80;;;;;;4971398;28;20513;-65
2022/04/19 12:14:23;;;;;;;5.47;4.70;;;6.70;92.10;;;;;;4989920;28;20464;-65
2022/04/19 12:17:00;;;;;;;3.93;3.63;;;6.80;93.00;;;;;;5015150;28;20448;-65
2022/04/19 12:19:40;;;;;;;5.70;4.80;;;6.80;92.80;;;;;;5005057;28;20434;-65
2022/04/19 12:22:24;;;;;;;4.90;4.50;;;6.90;93.40;;;;;;4986669;28;20418;-65
2022/04/19 12:24:53;;;;;;;5.30;4.80;;;7.00;93.20;;;;;;4982255;28;20471;-66
2022/04/19 12:27:24;;;;;;;5.23;4.83;;;7.10;93.10;;;;;;4979815;28;20444;-65
2022/04/19 12:29:58;;;;;;;5.33;4.93;;;7.20;92.90;;;;;;4979872;28;20484;-65
2022/04/19 12:32:24;;;;;;;4.60;4.20;;;7.30;92.60;;;;;;4994771;28;20464;-65
2022/04/19 12:34:50;;;;;;;4.33;4.00;;;7.20;91.80;;;;;;4995180;28;20429;-65
2022/04/19 12:37:18;;;;;;;6.13;4.30;;;7.30;91.90;;;;;;4993658;28;20433;-65
2022/04/19 12:40:01;;;;;;;5.20;4.70;;;7.30;91.40;;;;;;4994975;28;20484;-65
2022/04/19 12:42:27;;;;;;;6.37;5.07;;;7.30;91.60;;;;;;4995052;28;20414;-65
2022/04/19 12:45:04;;;;;;;5.43;4.93;;;7.40;91.10;;;;;;4994203;28;20430;-65
2022/04/19 12:47:30;;;;;;;5.20;4.80;;;7.40;91.30;;;;;;4993982;28;20417;-65
2022/04/19 12:49:56;;;;;;;4.60;4.20;;;7.40;91.40;;;;;;4964595;28;20438;-65
2022/04/19 12:52:32;;;;;;;5.20;4.80;;;7.50;91.40;;;;;;4958805;28;20199;-65
2022/04/19 12:55:02;;;;;;;4.87;4.47;;;7.50;91.70;;;;;;4974358;28;20419;-65
2022/04/19 12:57:27;;;;;;;5.60;5.10;;;7.50;90.80;;;;;;4973427;28;20441;-65
2022/04/19 12:59:53;;;;;;;6.20;5.60;;;7.50;91.50;;;;;;5011327;28;20425;-66
2022/04/19 13:02:20;;;;;;;5.43;5.03;;;7.40;91.60;;;;;;4963177;28;20200;-65
2022/04/19 13:04:49;;;;;;;6.40;5.27;;;7.30;90.00;;;;;;4957942;28;20338;-66
2022/04/19 13:12:44;;;;;;;5.20;4.80;;;7.30;89.00;;;;;;4995886;28;20408;-66
2022/04/19 13:15:11;;;;;;;5.20;4.80;;;7.30;89.20;;;;;;4977539;28;20501;-65
2022/04/19 13:17:39;;;;;;;5.23;4.47;;;7.30;89.20;;;;;;4978038;28;20192;-65
2022/04/19 13:20:06;;;;;;;5.70;5.20;;;7.30;88.40;;;;;;4994635;28;20417;-65
2022/04/19 13:22:33;;;;;;;5.93;5.37;;;7.40;90.30;;;;;;4994301;28;20425;-65
2022/04/19 13:24:59;;;;;;;5.07;4.63;;;7.50;91.30;;;;;;4988682;28;20539;-65
2022/04/19 13:27:26;;;;;;;5.77;5.27;;;7.60;89.50;;;;;;4990604;28;20458;-65
2022/04/19 13:29:52;;;;;;;4.83;4.43;;;7.70;91.00;;;;;;4988343;28;20427;-65
2022/04/19 13:32:21;;;;;;;6.00;5.47;;;7.70;90.70;;;;;;4976410;28;20434;-65
2022/04/19 13:34:48;;;;;;;5.87;5.40;;;7.80;91.30;;;;;;4989769;28;20422;-65
2022/04/19 13:38:23;;;;;;;6.47;5.97;;;7.80;91.00;;;;;;4972718;28;20529;-65
2022/04/19 13:40:03;;;;;;;5.93;5.43;;;7.80;91.20;;;;;;4989156;28;20481;-66